Time;durP1;ratioP1;P1;durP2;ratioP2;P2;SDS_P1;SDS_P2;PMS_P1;PMS_P2;Temp;Humidity;BMP_temperature;BMP_pressure;BME280_temperature;BME280_humidity;BME280_pressure;Samples;Min_cycle;Max_cycle;Signal;HPM_P1;HPM_P2
2022/06/22 00:00:25;;;;;;;12.95;5.20;;;;;;;;;;5054318;28;20032;-81
2022/06/22 00:02:52;;;;;;;6.97;4.68;;;;;;;;;;5054260;28;20029;-81
2022/06/22 00:05:21;;;;;;;12.30;5.15;;;;;;;;;;5054002;28;20036;-81
2022/06/22 00:07:53;;;;;;;9.63;5.50;;;;;;;;;;5054116;28;20021;-81
2022/06/22 00:10:51;;;;;;;14.93;5.13;;;;;;;;;;5054056;28;20029;-80
2022/06/22 00:13:19;;;;;;;11.45;5.70;;;;;;;;;;5008910;28;20046;-81
2022/06/22 00:15:50;;;;;;;13.02;5.35;;;;;;;;;;4992432;28;20038;-81
2022/06/22 00:18:24;;;;;;;12.82;5.43;;;;;;;;;;4992286;28;20022;-81
2022/06/22 00:20:52;;;;;;;12.43;5.75;;;;;;;;;;4992840;28;20034;-81
2022/06/22 00:23:26;;;;;;;14.35;6.10;;;;;;;;;;4992713;28;20070;-81
2022/06/22 00:25:58;;;;;;;11.60;5.57;;;;;;;;;;4992750;28;20113;-80
2022/06/22 00:28:24;;;;;;;10.57;5.40;;;;;;;;;;4992785;28;20031;-81
2022/06/22 00:30:51;;;;;;;12.05;5.43;;;;;;;;;;4988173;28;20110;-81
2022/06/22 00:33:23;;;;;;;12.90;5.78;;;;;;;;;;4973050;28;20705;-81
2022/06/22 00:35:52;;;;;;;16.17;5.50;;;;;;;;;;4973337;28;20039;-81
2022/06/22 00:38:23;;;;;;;11.52;5.80;;;;;;;;;;4972933;28;20493;-81
2022/06/22 00:40:51;;;;;;;12.40;5.13;;;;;;;;;;4973245;28;20035;-81
2022/06/22 00:43:18;;;;;;;12.18;5.88;;;;;;;;;;4973520;28;20045;-81
2022/06/22 00:45:44;;;;;;;12.63;5.45;;;;;;;;;;4973023;28;20039;-81
2022/06/22 00:48:23;;;;;;;11.70;6.13;;;;;;;;;;4987006;28;20042;-81
2022/06/22 00:50:58;;;;;;;7.80;5.03;;;;;;;;;;5032997;28;20037;-81
2022/06/22 00:53:30;;;;;;;11.40;5.45;;;;;;;;;;5033766;28;20021;-81
2022/06/22 00:55:59;;;;;;;12.50;5.07;;;;;;;;;;5033694;28;20076;-81
2022/06/22 00:58:32;;;;;;;15.35;6.95;;;;;;;;;;5034189;28;20407;-81
2022/06/22 01:00:58;;;;;;;13.20;6.60;;;;;;;;;;5033924;28;20036;-81
2022/06/22 01:03:35;;;;;;;10.65;6.07;;;;;;;;;;5033209;28;20033;-81
2022/06/22 01:06:04;;;;;;;14.75;7.88;;;;;;;;;;5033248;28;20029;-81
2022/06/22 01:08:33;;;;;;;13.93;6.90;;;;;;;;;;5032779;28;20026;-81
2022/06/22 01:11:05;;;;;;;17.85;6.78;;;;;;;;;;5032762;28;20111;-81
2022/06/22 01:13:46;;;;;;;11.82;7.22;;;;;;;;;;5064773;28;20025;-81
2022/06/22 01:16:22;;;;;;;14.85;7.40;;;;;;;;;;5032694;28;20075;-81
2022/06/22 01:18:58;;;;;;;14.40;7.20;;;;;;;;;;5032605;28;20038;-81
2022/06/22 01:21:28;;;;;;;13.43;6.97;;;;;;;;;;5032621;28;20030;-82
2022/06/22 01:24:07;;;;;;;13.02;7.15;;;;;;;;;;5032828;28;20038;-81
2022/06/22 01:26:39;;;;;;;11.20;7.47;;;;;;;;;;5032793;28;20029;-81
2022/06/22 01:29:12;;;;;;;14.18;7.47;;;;;;;;;;5033012;28;20037;-81
2022/06/22 01:31:42;;;;;;;13.18;6.80;;;;;;;;;;5043882;28;20021;-81
2022/06/22 01:34:13;;;;;;;12.20;6.45;;;;;;;;;;5052789;28;20029;-80
2022/06/22 01:36:40;;;;;;;13.88;6.63;;;;;;;;;;5051496;28;20106;-81
2022/06/22 01:39:06;;;;;;;10.15;6.75;;;;;;;;;;5052863;28;20029;-81
2022/06/22 01:41:36;;;;;;;13.30;6.72;;;;;;;;;;5051506;28;20340;-81
2022/06/22 01:44:20;;;;;;;16.58;6.70;;;;;;;;;;5052665;28;20029;-81
2022/06/22 01:47:09;;;;;;;21.60;8.60;;;;;;;;;;5051433;28;20494;-81
2022/06/22 01:49:39;;;;;;;16.92;7.63;;;;;;;;;;5052725;28;20033;-81
2022/06/22 01:52:07;;;;;;;17.02;8.13;;;;;;;;;;5053063;28;20022;-80
2022/06/22 01:54:38;;;;;;;14.77;7.93;;;;;;;;;;5052343;28;20029;-80
2022/06/22 01:57:06;;;;;;;13.57;6.80;;;;;;;;;;5052244;28;20098;-80
2022/06/22 01:59:38;;;;;;;15.52;6.85;;;;;;;;;;5052466;28;20025;-80
2022/06/22 02:02:08;;;;;;;14.40;8.07;;;;;;;;;;5054626;28;20124;-80
2022/06/22 02:04:37;;;;;;;17.17;8.57;;;;;;;;;;5057049;28;20032;-79
2022/06/22 02:10:08;;;;;;;15.60;8.57;;;;;;;;;;5036886;28;20423;-80
2022/06/22 02:12:37;;;;;;;17.63;8.43;;;;;;;;;;5036524;28;20109;-80
2022/06/22 02:15:08;;;;;;;16.60;8.52;;;;;;;;;;5036919;28;20018;-80
2022/06/22 02:17:36;;;;;;;15.15;7.50;;;;;;;;;;5036763;28;20029;-80
2022/06/22 02:20:20;;;;;;;15.38;8.85;;;;;;;;;;5036456;28;20017;-80
2022/06/22 02:22:48;;;;;;;25.95;9.50;;;;;;;;;;5036738;28;20448;-80
2022/06/22 02:25:15;;;;;;;18.52;7.57;;;;;;;;;;5036409;28;20034;-80
2022/06/22 02:27:41;;;;;;;16.45;7.53;;;;;;;;;;5036911;28;20025;-80
2022/06/22 02:30:08;;;;;;;12.63;7.88;;;;;;;;;;5036257;28;20087;-80
2022/06/22 02:32:37;;;;;;;16.67;8.65;;;;;;;;;;5054951;28;20021;-80
2022/06/22 02:35:04;;;;;;;17.85;7.82;;;;;;;;;;5056374;28;20057;-80
2022/06/22 02:37:33;;;;;;;20.45;8.68;;;;;;;;;;5056463;28;20025;-80
2022/06/22 02:40:01;;;;;;;15.82;7.90;;;;;;;;;;5055893;28;20032;-80
2022/06/22 02:45:14;;;;;;;17.17;8.50;;;;;;;;;;5056442;28;20126;-81
2022/06/22 02:47:49;;;;;;;18.48;8.93;;;;;;;;;;5056009;28;20029;-81
2022/06/22 02:50:23;;;;;;;16.70;9.05;;;;;;;;;;5055734;28;20021;-81
2022/06/22 02:52:53;;;;;;;17.80;8.80;;;;;;;;;;5056065;28;20067;-80
2022/06/22 02:55:22;;;;;;;18.30;9.07;;;;;;;;;;5055494;28;20500;-81
2022/06/22 02:57:54;;;;;;;15.38;9.05;;;;;;;;;;5055771;28;20075;-81
2022/06/22 03:00:21;;;;;;;17.10;8.88;;;;;;;;;;5055891;28;20352;-81
2022/06/22 03:02:49;;;;;;;19.00;9.27;;;;;;;;;;5055448;28;20032;-80
2022/06/22 03:05:17;;;;;;;19.10;9.43;;;;;;;;;;5051057;28;20072;-81
2022/06/22 03:07:44;;;;;;;15.93;9.93;;;;;;;;;;5035869;28;20037;-81
2022/06/22 03:10:18;;;;;;;21.20;9.82;;;;;;;;;;5035358;28;20072;-81
2022/06/22 03:12:44;;;;;;;17.20;8.88;;;;;;;;;;5035335;28;20391;-81
2022/06/22 03:15:14;;;;;;;20.48;9.50;;;;;;;;;;5050780;28;20451;-81
2022/06/22 03:17:40;;;;;;;15.00;8.70;;;;;;;;;;5035348;28;20105;-81
2022/06/22 03:20:12;;;;;;;19.80;9.68;;;;;;;;;;5035439;28;20328;-80
2022/06/22 03:22:46;;;;;;;19.08;9.25;;;;;;;;;;5035288;28;20104;-80
2022/06/22 03:25:39;;;;;;;17.52;9.60;;;;;;;;;;5035680;28;20490;-81
2022/06/22 03:28:09;;;;;;;17.60;9.05;;;;;;;;;;4993740;28;20049;-81
2022/06/22 03:30:44;;;;;;;21.77;9.30;;;;;;;;;;4993849;28;20474;-81
2022/06/22 03:33:12;;;;;;;20.05;8.75;;;;;;;;;;4994120;28;20046;-81
2022/06/22 03:35:40;;;;;;;13.18;8.57;;;;;;;;;;4994028;28;20026;-81
2022/06/22 03:38:09;;;;;;;19.70;9.32;;;;;;;;;;4993907;28;20500;-81
2022/06/22 03:40:43;;;;;;;19.55;8.95;;;;;;;;;;4993903;28;20437;-81
2022/06/22 03:43:11;;;;;;;15.30;9.90;;;;;;;;;;4993352;28;20389;-81
2022/06/22 03:45:44;;;;;;;15.68;9.48;;;;;;;;;;4993451;28;20097;-81
2022/06/22 03:48:10;;;;;;;19.80;8.52;;;;;;;;;;4993501;28;20113;-81
2022/06/22 03:50:39;;;;;;;17.60;9.50;;;;;;;;;;4993532;28;20137;-81
2022/06/22 03:53:08;;;;;;;24.60;9.75;;;;;;;;;;4993621;28;20035;-82
2022/06/22 03:55:37;;;;;;;15.60;9.80;;;;;;;;;;4993305;28;20042;-82
2022/06/22 03:58:04;;;;;;;21.02;9.90;;;;;;;;;;4993218;28;20062;-81
2022/06/22 04:00:31;;;;;;;20.38;10.55;;;;;;;;;;4993239;28;20034;-81
2022/06/22 04:02:58;;;;;;;16.58;9.10;;;;;;;;;;4993152;28;20141;-81
2022/06/22 04:05:25;;;;;;;20.17;9.63;;;;;;;;;;5038172;28;20048;-81
2022/06/22 04:07:51;;;;;;;22.52;8.98;;;;;;;;;;5054367;28;20037;-81
2022/06/22 04:10:24;;;;;;;19.35;10.15;;;;;;;;;;5054165;28;20094;-81
2022/06/22 04:12:51;;;;;;;15.70;8.45;;;;;;;;;;5054470;28;20049;-81
2022/06/22 04:15:17;;;;;;;23.15;9.57;;;;;;;;;;5054570;28;20029;-81
2022/06/22 04:17:46;;;;;;;22.35;10.30;;;;;;;;;;5054612;28;20123;-81
2022/06/22 04:20:14;;;;;;;17.75;8.95;;;;;;;;;;5054210;28;20522;-81
2022/06/22 04:22:42;;;;;;;18.95;10.52;;;;;;;;;;5054188;28;20442;-81
2022/06/22 04:25:17;;;;;;;20.45;10.88;;;;;;;;;;5053613;28;20033;-81
2022/06/22 04:27:45;;;;;;;17.85;10.05;;;;;;;;;;5054018;28;20120;-81
2022/06/22 04:30:14;;;;;;;20.35;9.38;;;;;;;;;;5052497;28;20108;-81
2022/06/22 04:32:43;;;;;;;14.18;9.65;;;;;;;;;;5034278;28;20018;-81
2022/06/22 04:35:24;;;;;;;15.32;9.23;;;;;;;;;;5066391;28;20349;-81
2022/06/22 04:37:57;;;;;;;17.55;9.27;;;;;;;;;;5033825;28;20021;-81
2022/06/22 04:40:23;;;;;;;18.23;9.05;;;;;;;;;;5033988;28;20041;-80
2022/06/22 04:42:51;;;;;;;20.95;8.85;;;;;;;;;;5033776;28;20025;-81
2022/06/22 04:45:25;;;;;;;14.77;9.20;;;;;;;;;;5033911;28;20379;-80
2022/06/22 04:47:51;;;;;;;15.85;8.52;;;;;;;;;;5033845;28;20487;-80
2022/06/22 04:50:17;;;;;;;18.08;9.02;;;;;;;;;;5033728;28;20032;-81
2022/06/22 04:52:47;;;;;;;14.93;8.90;;;;;;;;;;5033843;28;20025;-81
2022/06/22 04:55:15;;;;;;;16.70;8.45;;;;;;;;;;5033379;28;20038;-80
2022/06/22 04:57:43;;;;;;;15.75;8.95;;;;;;;;;;5033623;28;20024;-81
2022/06/22 05:00:21;;;;;;;14.20;8.73;;;;;;;;;;5034041;28;20096;-80
2022/06/22 05:02:49;;;;;;;15.05;9.30;;;;;;;;;;5065393;28;20456;-81
2022/06/22 05:05:23;;;;;;;13.63;7.88;;;;;;;;;;5037822;28;20033;-81
2022/06/22 05:07:58;;;;;;;20.17;8.18;;;;;;;;;;5053519;28;20056;-81
2022/06/22 05:10:42;;;;;;;13.93;8.05;;;;;;;;;;5053227;28;20463;-81
2022/06/22 05:13:26;;;;;;;14.45;7.97;;;;;;;;;;5053106;28;20480;-81
2022/06/22 05:15:54;;;;;;;13.68;8.10;;;;;;;;;;5053132;28;20486;-80
2022/06/22 05:18:31;;;;;;;14.75;7.47;;;;;;;;;;5053129;28;20353;-81
2022/06/22 05:20:57;;;;;;;20.15;8.23;;;;;;;;;;5052985;28;20466;-81
2022/06/22 05:23:25;;;;;;;17.35;8.13;;;;;;;;;;5053027;28;20070;-81
2022/06/22 05:25:52;;;;;;;20.45;8.20;;;;;;;;;;5053258;28;20078;-81
2022/06/22 05:28:23;;;;;;;13.93;8.18;;;;;;;;;;5053411;28;20119;-80
2022/06/22 05:31:00;;;;;;;17.02;7.68;;;;;;;;;;5049013;28;20021;-80
2022/06/22 05:33:27;;;;;;;11.02;6.90;;;;;;;;;;5033136;28;20049;-81
2022/06/22 05:35:59;;;;;;;17.25;7.22;;;;;;;;;;5069839;28;20343;-80
2022/06/22 05:38:26;;;;;;;13.02;7.13;;;;;;;;;;5052461;28;20025;-80
2022/06/22 05:40:53;;;;;;;11.63;5.88;;;;;;;;;;5052797;28;20029;-80
2022/06/22 05:43:20;;;;;;;9.20;5.20;;;;;;;;;;5052671;28;20108;-80
2022/06/22 05:45:51;;;;;;;10.68;5.25;;;;;;;;;;5053059;28;20025;-80
2022/06/22 05:48:19;;;;;;;8.38;4.35;;;;;;;;;;5053307;28;20021;-80
2022/06/22 05:50:51;;;;;;;6.03;3.95;;;;;;;;;;5052927;28;20332;-80
2022/06/22 05:53:39;;;;;;;8.88;4.30;;;;;;;;;;5053527;28;20035;-80
2022/06/22 05:56:05;;;;;;;8.70;3.90;;;;;;;;;;5052935;28;20033;-80
2022/06/22 05:58:37;;;;;;;7.88;3.25;;;;;;;;;;5052666;28;20032;-81
2022/06/22 06:01:05;;;;;;;9.90;4.22;;;;;;;;;;5052884;28;20029;-80
2022/06/22 06:03:39;;;;;;;7.30;3.45;;;;;;;;;;5053271;28;20362;-80
2022/06/22 06:06:10;;;;;;;5.68;3.53;;;;;;;;;;5041464;28;20032;-81
2022/06/22 06:08:52;;;;;;;6.45;3.08;;;;;;;;;;5032896;28;20045;-80
2022/06/22 06:11:19;;;;;;;6.78;3.30;;;;;;;;;;5033300;28;20030;-80
2022/06/22 06:13:50;;;;;;;5.70;3.20;;;;;;;;;;5032950;28;20468;-81
2022/06/22 06:16:26;;;;;;;8.45;3.22;;;;;;;;;;5032772;28;20459;-81
2022/06/22 06:18:55;;;;;;;8.60;3.20;;;;;;;;;;5032903;28;20025;-81
2022/06/22 06:21:23;;;;;;;6.57;2.85;;;;;;;;;;5032537;28;20018;-81
2022/06/22 06:23:55;;;;;;;6.65;3.30;;;;;;;;;;5032624;28;20361;-80
2022/06/22 06:29:19;;;;;;;5.68;3.35;;;;;;;;;;5033191;28;20083;-81
2022/06/22 06:32:04;;;;;;;5.10;3.20;;;;;;;;;;5044943;28;20049;-81
2022/06/22 06:34:40;;;;;;;7.70;3.33;;;;;;;;;;5052837;28;20024;-81
2022/06/22 06:37:26;;;;;;;9.57;4.05;;;;;;;;;;5052853;28;20044;-81
2022/06/22 06:39:54;;;;;;;6.10;2.80;;;;;;;;;;4991206;28;20080;-81
2022/06/22 06:42:30;;;;;;;6.90;2.60;;;;;;;;;;4991219;28;20034;-81
2022/06/22 06:44:58;;;;;;;6.45;2.47;;;;;;;;;;4991209;28;20038;-81
2022/06/22 06:47:27;;;;;;;3.80;2.20;;;;;;;;;;4991779;28;20027;-81
2022/06/22 06:50:06;;;;;;;3.22;2.08;;;;;;;;;;4994607;28;20041;-81
2022/06/22 06:52:36;;;;;;;5.93;2.22;;;;;;;;;;4994379;28;20030;-81
2022/06/22 06:55:05;;;;;;;3.60;1.80;;;;;;;;;;4994570;28;20114;-81
2022/06/22 06:57:32;;;;;;;2.78;1.42;;;;;;;;;;4994529;28;20105;-81
2022/06/22 07:00:01;;;;;;;3.50;1.25;;;;;;;;;;5010475;28;20034;-81
2022/06/22 07:02:30;;;;;;;5.78;1.50;;;;;;;;;;4994603;28;20113;-81
2022/06/22 07:04:58;;;;;;;2.35;1.38;;;;;;;;;;4992523;28;20050;-81
2022/06/22 07:07:24;;;;;;;3.92;1.60;;;;;;;;;;4974703;28;20043;-81
2022/06/22 07:09:51;;;;;;;4.35;1.52;;;;;;;;;;4980302;28;20539;-80
2022/06/22 07:12:33;;;;;;;6.75;1.80;;;;;;;;;;4994222;28;20085;-80
2022/06/22 07:15:02;;;;;;;4.38;1.60;;;;;;;;;;4987921;28;20050;-79
2022/06/22 07:17:29;;;;;;;2.85;1.42;;;;;;;;;;5031469;28;20029;-80
2022/06/22 07:19:58;;;;;;;4.70;1.70;;;;;;;;;;5055304;28;20017;-80
2022/06/22 07:22:31;;;;;;;3.45;1.42;;;;;;;;;;5055106;28;20031;-80
2022/06/22 07:25:00;;;;;;;7.10;1.60;;;;;;;;;;5055163;28;20025;-81
2022/06/22 07:27:33;;;;;;;7.25;1.63;;;;;;;;;;5055054;28;20510;-80
2022/06/22 07:30:11;;;;;;;4.72;1.52;;;;;;;;;;5054916;28;20458;-81
2022/06/22 07:32:40;;;;;;;4.03;1.73;;;;;;;;;;5054904;28;20052;-80
2022/06/22 07:35:06;;;;;;;7.05;1.55;;;;;;;;;;5053689;28;20035;-80
2022/06/22 07:37:39;;;;;;;7.40;1.65;;;;;;;;;;5055228;28;20029;-80
2022/06/22 07:40:12;;;;;;;4.20;1.48;;;;;;;;;;5055095;28;20052;-80
2022/06/22 07:42:39;;;;;;;3.63;1.40;;;;;;;;;;5055105;28;20029;-81
2022/06/22 07:45:05;;;;;;;4.40;1.30;;;;;;;;;;5054881;28;20021;-81
2022/06/22 07:47:33;;;;;;;3.50;1.83;;;;;;;;;;5054722;28;20348;-80
2022/06/22 07:50:04;;;;;;;3.88;1.45;;;;;;;;;;5054436;28;20044;-81
2022/06/22 07:52:33;;;;;;;4.05;1.30;;;;;;;;;;5054898;28;20024;-81
2022/06/22 07:55:18;;;;;;;3.15;1.30;;;;;;;;;;5054385;28;20090;-81
2022/06/22 07:57:54;;;;;;;5.05;1.50;;;;;;;;;;5054531;28;20043;-81
2022/06/22 08:00:21;;;;;;;7.13;1.75;;;;;;;;;;5053389;28;20052;-81
2022/06/22 08:02:53;;;;;;;5.78;1.65;;;;;;;;;;5054465;28;20096;-80
2022/06/22 08:05:22;;;;;;;6.97;1.40;;;;;;;;;;5054719;28;20037;-80
2022/06/22 08:07:55;;;;;;;3.75;1.48;;;;;;;;;;5053042;28;20035;-81
2022/06/22 08:10:24;;;;;;;3.65;1.45;;;;;;;;;;5054515;28;20048;-81
2022/06/22 08:13:09;;;;;;;3.88;1.60;;;;;;;;;;5054400;28;20024;-81
2022/06/22 08:15:41;;;;;;;5.93;2.00;;;;;;;;;;5054286;28;20102;-80
2022/06/22 08:18:08;;;;;;;3.92;1.42;;;;;;;;;;5054658;28;20028;-80
2022/06/22 08:20:35;;;;;;;4.63;1.83;;;;;;;;;;5054277;28;20021;-81
2022/06/22 08:23:04;;;;;;;8.25;2.28;;;;;;;;;;5054301;28;20036;-80
2022/06/22 08:25:31;;;;;;;16.98;1.83;;;;;;;;;;5054202;28;20475;-81
2022/06/22 08:27:57;;;;;;;3.30;1.30;;;;;;;;;;5053819;28;20206;-80
2022/06/22 08:30:23;;;;;;;7.60;1.80;;;;;;;;;;5053611;28;20021;-81
2022/06/22 08:32:55;;;;;;;5.93;1.65;;;;;;;;;;5053723;28;20036;-81
2022/06/22 08:35:25;;;;;;;4.30;1.58;;;;;;;;;;5053872;28;20459;-81
2022/06/22 08:37:58;;;;;;;4.05;1.50;;;;;;;;;;5053700;28;20024;-81
2022/06/22 08:40:47;;;;;;;8.10;1.50;;;;;;;;;;5053798;28;20471;-81
2022/06/22 08:43:28;;;;;;;2.55;1.30;;;;;;;;;;5080407;28;20370;-81
2022/06/22 08:46:13;;;;;;;6.78;1.67;;;;;;;;;;5053642;28;20036;-81
2022/06/22 08:49:02;;;;;;;6.30;1.52;;;;;;;;;;5053759;28;20076;-81
2022/06/22 08:51:43;;;;;;;7.60;1.75;;;;;;;;;;4989066;28;20524;-81
2022/06/22 08:54:27;;;;;;;5.05;1.60;;;;;;;;;;4991977;28;20050;-81
2022/06/22 08:57:03;;;;;;;3.60;1.35;;;;;;;;;;4991999;28;20387;-81
2022/06/22 08:59:44;;;;;;;7.65;1.60;;;;;;;;;;4992090;28;20129;-81
2022/06/22 09:02:19;;;;;;;5.82;1.50;;;;;;;;;;4992318;28;20386;-82
2022/06/22 09:04:45;;;;;;;2.88;1.15;;;;;;;;;;4990323;28;20030;-81
2022/06/22 09:07:30;;;;;;;12.43;1.67;;;;;;;;;;4991893;28;20089;-83
2022/06/22 09:10:09;;;;;;;3.22;1.60;;;;;;;;;;4991710;28;20053;-82
2022/06/22 09:12:43;;;;;;;2.30;1.13;;;;;;;;;;4991924;28;20027;-82
2022/06/22 09:15:18;;;;;;;5.53;1.70;;;;;;;;;;4991748;28;20224;-82
2022/06/22 09:17:56;;;;;;;3.42;0.90;;;;;;;;;;4991408;28;20026;-81
2022/06/22 09:20:33;;;;;;;4.18;1.40;;;;;;;;;;4992124;28;20118;-81
2022/06/22 09:23:02;;;;;;;6.03;1.10;;;;;;;;;;4991759;28;20034;-81
2022/06/22 09:25:49;;;;;;;2.67;1.27;;;;;;;;;;4991687;28;20089;-82
2022/06/22 09:28:22;;;;;;;3.85;1.20;;;;;;;;;;5008851;28;20057;-82
2022/06/22 09:31:04;;;;;;;2.35;1.05;;;;;;;;;;5037306;28;20025;-80
2022/06/22 09:33:46;;;;;;;1.70;1.05;;;;;;;;;;5053013;28;20021;-80
2022/06/22 09:36:12;;;;;;;;;;;;;;;;;;5053348;28;20501;-81
2022/06/22 09:38:41;;;;;;;3.78;1.27;;;;;;;;;;5053116;28;19995;-82
2022/06/22 09:41:16;;;;;;;7.72;1.30;;;;;;;;;;5053114;28;20029;-79
2022/06/22 09:43:45;;;;;;;4.72;1.20;;;;;;;;;;5051979;28;20499;-77
2022/06/22 09:46:18;;;;;;;3.60;1.10;;;;;;;;;;5052643;28;20422;-84
2022/06/22 09:49:10;;;;;;;4.05;1.45;;;;;;;;;;5053019;28;20025;-82
2022/06/22 09:51:36;;;;;;;3.75;1.30;;;;;;;;;;5053141;28;20033;-82
2022/06/22 09:56:19;;;;;;;3.95;1.20;;;;;;;;;;5052813;28;20034;-82
2022/06/22 09:57:03;;;;;;;6.68;1.40;;;;;;;;;;5052588;28;20037;-83
2022/06/22 09:59:32;;;;;;;2.55;1.17;;;;;;;;;;5053084;28;20386;-83
2022/06/22 10:02:14;;;;;;;4.68;1.30;;;;;;;;;;5052634;28;20057;-82
2022/06/22 10:04:40;;;;;;;3.92;2.05;;;;;;;;;;5053249;28;20033;-82
2022/06/22 10:07:12;;;;;;;2.88;1.27;;;;;;;;;;5051277;28;20040;-82
2022/06/22 10:09:38;;;;;;;;;;;;;;;;;;5053253;28;20053;-82
2022/06/22 10:12:18;;;;;;;4.30;1.17;;;;;;;;;;5052945;28;19952;-82
2022/06/22 10:15:04;;;;;;;3.83;1.27;;;;;;;;;;5052798;28;20456;-82
2022/06/22 10:17:33;;;;;;;3.00;1.42;;;;;;;;;;5052691;28;20021;-83
2022/06/22 10:20:14;;;;;;;3.03;1.00;;;;;;;;;;5052599;28;20036;-82
2022/06/22 10:23:13;;;;;;;2.20;0.70;;;;;;;;;;5054090;28;20036;-82
2022/06/22 10:25:51;;;;;;;4.32;1.08;;;;;;;;;;4994947;28;20042;-82
2022/06/22 10:28:32;;;;;;;2.08;0.90;;;;;;;;;;4994887;28;20068;-82
2022/06/22 10:31:17;;;;;;;4.43;0.90;;;;;;;;;;4995441;28;20026;-83
2022/06/22 10:34:09;;;;;;;7.38;1.25;;;;;;;;;;4995024;28;20019;-82
2022/06/22 10:36:45;;;;;;;4.40;1.00;;;;;;;;;;5011110;28;20385;-83
2022/06/22 10:39:25;;;;;;;2.80;1.15;;;;;;;;;;4994867;28;20030;-81
2022/06/22 10:45:08;;;;;;;6.00;1.27;;;;;;;;;;4975513;28;20505;-82
2022/06/22 10:47:46;;;;;;;3.38;1.23;;;;;;;;;;4975442;28;20125;-80
2022/06/22 10:50:18;;;;;;;3.10;1.13;;;;;;;;;;4974845;28;20394;-80
2022/06/22 10:52:44;;;;;;;3.50;1.08;;;;;;;;;;4974636;28;20039;-81
2022/06/22 10:55:21;;;;;;;4.38;0.85;;;;;;;;;;4974560;28;20047;-80
2022/06/22 10:57:53;;;;;;;3.28;1.15;;;;;;;;;;4991380;28;20474;-80
2022/06/22 11:00:33;;;;;;;2.53;1.15;;;;;;;;;;4982454;28;20111;-81
2022/06/22 11:03:09;;;;;;;2.78;1.40;;;;;;;;;;5054274;28;20013;-80
2022/06/22 11:05:44;;;;;;;3.17;0.88;;;;;;;;;;5055316;28;20123;-81
2022/06/22 11:08:30;;;;;;;5.53;1.17;;;;;;;;;;5052559;28;20017;-80
2022/06/22 11:11:03;;;;;;;4.10;1.10;;;;;;;;;;5055027;28;20037;-80
2022/06/22 11:13:48;;;;;;;2.33;1.23;;;;;;;;;;5055554;28;20032;-80
2022/06/22 11:16:20;;;;;;;4.30;1.38;;;;;;;;;;5055054;28;20027;-80
2022/06/22 11:18:46;;;;;;;;;;;;;;;;;;5055702;28;20090;-80
2022/06/22 11:21:31;;;;;;;3.63;0.90;;;;;;;;;;5055263;28;19909;-80
2022/06/22 11:24:15;;;;;;;4.22;0.93;;;;;;;;;;5055361;28;20036;-80
2022/06/22 11:32:53;;;;;;;2.38;0.80;;;;;;;;;;5054985;28;20055;-80
2022/06/22 11:35:28;;;;;;;3.72;1.40;;;;;;;;;;5054888;28;20029;-80
2022/06/22 11:38:05;;;;;;;1.90;0.73;;;;;;;;;;5035282;28;20084;-80
2022/06/22 11:40:39;;;;;;;3.97;0.80;;;;;;;;;;5034971;28;20026;-80
2022/06/22 11:43:14;;;;;;;1.98;0.77;;;;;;;;;;5051426;28;20028;-80
2022/06/22 11:45:51;;;;;;;3.28;1.00;;;;;;;;;;5053725;28;20056;-80
2022/06/22 11:48:20;;;;;;;0.90;0.70;;;;;;;;;;5054270;28;20502;-77
2022/06/22 11:50:54;;;;;;;2.95;0.70;;;;;;;;;;5053162;28;20116;-79
2022/06/22 11:53:38;;;;;;;2.03;0.80;;;;;;;;;;5053299;28;20147;-77
2022/06/22 11:56:12;;;;;;;3.47;0.82;;;;;;;;;;5051958;28;20045;-76
2022/06/22 11:58:51;;;;;;;2.45;0.80;;;;;;;;;;5053522;28;20029;-76
2022/06/22 12:01:25;;;;;;;2.75;1.00;;;;;;;;;;5053104;28;20032;-78
2022/06/22 12:04:14;;;;;;;3.45;0.73;;;;;;;;;;5053045;28;20527;-76
2022/06/22 12:06:49;;;;;;;4.53;0.90;;;;;;;;;;4984039;28;20047;-76
2022/06/22 12:09:24;;;;;;;2.65;0.80;;;;;;;;;;4982167;28;20478;-77
2022/06/22 12:11:58;;;;;;;4.28;0.80;;;;;;;;;;4985745;28;20039;-76
2022/06/22 12:17:09;;;;;;;2.05;0.73;;;;;;;;;;4985715;28;20041;-76
2022/06/22 12:19:35;;;;;;;1.75;0.80;;;;;;;;;;4991638;28;20129;-76
2022/06/22 12:22:16;;;;;;;1.55;0.70;;;;;;;;;;4991503;28;20707;-76
2022/06/22 12:24:47;;;;;;;3.40;0.90;;;;;;;;;;4978779;28;20046;-76
2022/06/22 12:27:18;;;;;;;3.85;0.90;;;;;;;;;;4975068;28;20533;-76
2022/06/22 12:29:55;;;;;;;3.75;1.13;;;;;;;;;;4982210;28;20058;-76
2022/06/22 12:32:26;;;;;;;0.98;0.63;;;;;;;;;;4979211;28;20022;-76
2022/06/22 12:35:11;;;;;;;2.80;1.13;;;;;;;;;;4976379;28;20036;-76
2022/06/22 12:37:41;;;;;;;1.17;0.60;;;;;;;;;;4984641;28;20571;-76
2022/06/22 12:40:10;;;;;;;0.85;0.68;;;;;;;;;;4985146;28;20034;-76
2022/06/22 12:42:59;;;;;;;7.53;1.35;;;;;;;;;;4980153;28;20042;-76
2022/06/22 12:45:28;;;;;;;3.03;0.70;;;;;;;;;;5049740;28;20341;-76
2022/06/22 12:47:54;;;;;;;1.10;0.70;;;;;;;;;;5051682;28;20028;-76
2022/06/22 12:50:32;;;;;;;9.27;0.80;;;;;;;;;;5051850;28;20029;-77
2022/06/22 12:53:07;;;;;;;2.05;0.70;;;;;;;;;;5052234;28;20437;-76
2022/06/22 12:55:45;;;;;;;1.15;0.75;;;;;;;;;;5084320;28;20080;-76
2022/06/22 12:58:15;;;;;;;2.05;0.80;;;;;;;;;;5052312;28;20036;-76
2022/06/22 13:00:42;;;;;;;3.97;0.80;;;;;;;;;;5052432;28;20040;-76
2022/06/22 13:03:13;;;;;;;2.95;0.85;;;;;;;;;;5050118;28;20064;-77
2022/06/22 13:05:39;;;;;;;2.73;0.80;;;;;;;;;;5052212;28;20082;-78
2022/06/22 13:08:11;;;;;;;1.58;0.73;;;;;;;;;;5052071;28;20031;-75
2022/06/22 13:10:41;;;;;;;5.03;0.73;;;;;;;;;;5050077;28;20551;-80
2022/06/22 13:13:15;;;;;;;3.03;0.70;;;;;;;;;;5051792;28;20025;-77
2022/06/22 13:15:47;;;;;;;7.05;1.08;;;;;;;;;;5051698;28;20017;-77
2022/06/22 13:18:25;;;;;;;2.03;0.85;;;;;;;;;;5051650;28;20059;-77
2022/06/22 13:20:51;;;;;;;2.85;0.75;;;;;;;;;;5051321;28;20112;-77
2022/06/22 13:23:29;;;;;;;3.50;1.00;;;;;;;;;;5051561;28;20104;-77
2022/06/22 13:26:04;;;;;;;3.05;1.00;;;;;;;;;;5049732;28;20021;-77
2022/06/22 13:28:53;;;;;;;4.18;0.93;;;;;;;;;;5048952;28;20017;-77
2022/06/22 13:31:31;;;;;;;1.80;0.75;;;;;;;;;;4988425;28;20049;-76
2022/06/22 13:34:04;;;;;;;4.45;0.77;;;;;;;;;;4990282;28;20053;-76
2022/06/22 13:36:30;;;;;;;2.30;1.00;;;;;;;;;;4990288;28;20035;-76
2022/06/22 13:39:21;;;;;;;3.53;0.90;;;;;;;;;;4990226;28;20114;-76
2022/06/22 13:41:47;;;;;;;2.03;0.90;;;;;;;;;;4990187;28;20039;-76
2022/06/22 13:44:28;;;;;;;5.88;0.90;;;;;;;;;;4988745;28;20097;-76
2022/06/22 13:47:00;;;;;;;3.63;1.10;;;;;;;;;;4989568;28;20500;-76
2022/06/22 13:49:26;;;;;;;2.47;1.00;;;;;;;;;;4989756;28;20030;-76
2022/06/22 13:52:15;;;;;;;2.17;0.68;;;;;;;;;;4988721;28;20077;-76
2022/06/22 13:55:00;;;;;;;2.28;0.90;;;;;;;;;;4970840;28;20417;-76
2022/06/22 13:57:52;;;;;;;2.08;0.93;;;;;;;;;;4990479;28;20023;-76
2022/06/22 14:00:22;;;;;;;0.82;0.63;;;;;;;;;;4988342;28;20464;-76
2022/06/22 14:02:58;;;;;;;2.53;1.00;;;;;;;;;;4993347;28;20027;-76
2022/06/22 14:05:44;;;;;;;2.63;0.90;;;;;;;;;;4993519;28;20042;-76
2022/06/22 14:08:42;;;;;;;3.15;1.00;;;;;;;;;;5020229;28;20086;-76
2022/06/22 14:11:08;;;;;;;1.55;0.90;;;;;;;;;;4992103;28;20128;-76
2022/06/22 14:13:40;;;;;;;3.65;0.93;;;;;;;;;;4993224;28;20026;-76
2022/06/22 14:16:06;;;;;;;;;;;;;;;;;;4993789;28;20424;-76
2022/06/22 14:18:42;;;;;;;1.77;0.70;;;;;;;;;;4993317;28;20039;-76
2022/06/22 14:21:16;;;;;;;1.48;0.75;;;;;;;;;;4993426;28;20049;-77
2022/06/22 14:23:42;;;;;;;4.00;1.00;;;;;;;;;;4993401;28;20042;-74
2022/06/22 14:26:20;;;;;;;3.60;0.90;;;;;;;;;;4993444;28;20027;-74
2022/06/22 14:29:07;;;;;;;0.88;0.70;;;;;;;;;;4993572;28;20031;-76
2022/06/22 14:31:37;;;;;;;2.28;0.90;;;;;;;;;;4992979;28;20042;-76
2022/06/22 14:34:10;;;;;;;5.40;0.77;;;;;;;;;;5009547;28;20401;-76
2022/06/22 14:36:47;;;;;;;2.20;0.85;;;;;;;;;;4993260;28;20478;-73
2022/06/22 14:39:13;;;;;;;1.80;0.80;;;;;;;;;;4993585;28;20097;-75
2022/06/22 14:41:54;;;;;;;1.60;0.68;;;;;;;;;;4993316;28;20500;-76
2022/06/22 14:44:39;;;;;;;3.00;1.00;;;;;;;;;;4992802;28;20057;-77
2022/06/22 14:47:23;;;;;;;;;;;;;;;;;;;;;
2022/06/22 14:53:08;;;;;;;2.60;0.93;;;;;;;;;;5020571;28;20396;-77
2022/06/22 14:55:37;;;;;;;1.60;0.88;;;;;;;;;;5029135;28;20041;-77
2022/06/22 14:58:11;;;;;;;1.95;0.90;;;;;;;;;;5033856;28;20033;-78
2022/06/22 15:00:46;;;;;;;2.40;0.80;;;;;;;;;;5017145;28;20057;-77
2022/06/22 15:03:24;;;;;;;1.42;0.65;;;;;;;;;;5026671;28;20026;-77
2022/06/22 15:06:09;;;;;;;4.68;0.90;;;;;;;;;;5014989;28;20037;-77
2022/06/22 15:08:42;;;;;;;3.65;0.93;;;;;;;;;;5019932;28;20040;-77
2022/06/22 15:14:03;;;;;;;1.60;0.70;;;;;;;;;;5022965;28;20036;-79
2022/06/22 15:16:32;;;;;;;7.68;0.90;;;;;;;;;;5021267;28;20741;-77
2022/06/22 15:18:58;;;;;;;2.47;0.82;;;;;;;;;;5021126;28;20387;-80
2022/06/22 15:21:27;;;;;;;5.82;0.93;;;;;;;;;;5019777;28;20087;-79
2022/06/22 15:23:57;;;;;;;3.55;0.80;;;;;;;;;;5019998;28;20057;-80
2022/06/22 15:26:32;;;;;;;4.60;0.90;;;;;;;;;;5018812;28;20193;-83
2022/06/22 15:29:04;;;;;;;2.55;0.90;;;;;;;;;;5029862;28;20503;-84
2022/06/22 15:31:38;;;;;;;1.80;0.80;;;;;;;;;;5045288;28;20030;-83
2022/06/22 15:34:04;;;;;;;5.35;0.80;;;;;;;;;;5061619;28;20459;-83
2022/06/22 15:36:37;;;;;;;4.35;1.00;;;;;;;;;;5052790;28;20025;-83
2022/06/22 15:39:05;;;;;;;3.53;0.90;;;;;;;;;;5052960;28;20454;-83
2022/06/22 15:41:36;;;;;;;3.33;0.90;;;;;;;;;;5054644;28;20058;-81